sensor_id;sensor_type;location;lat;lon;timestamp;P1;durP1;ratioP1;P2;durP2;ratioP2
5493;SDS011;2769;49.864;8.656;2023-09-19T00:00:40;5.80;;;1.50;;
5493;SDS011;2769;49.864;8.656;2023-09-19T00:03:31;2.60;;;1.50;;
5493;SDS011;2769;49.864;8.656;2023-09-19T00:06:19;3.70;;;1.53;;
5493;SDS011;2769;49.864;8.656;2023-09-19T00:09:08;1.57;;;1.47;;
5493;SDS011;2769;49.864;8.656;2023-09-19T00:11:57;3.17;;;1.77;;
5493;SDS011;2769;49.864;8.656;2023-09-19T00:14:46;4.70;;;1.70;;
5493;SDS011;2769;49.864;8.656;2023-09-19T00:17:34;1.50;;;1.40;;
5493;SDS011;2769;49.864;8.656;2023-09-19T00:20:25;1.93;;;1.50;;
5493;SDS011;2769;49.864;8.656;2023-09-19T00:23:16;1.80;;;1.50;;
5493;SDS011;2769;49.864;8.656;2023-09-19T00:26:06;1.80;;;1.50;;
5493;SDS011;2769;49.864;8.656;2023-09-19T00:28:55;1.43;;;1.40;;
5493;SDS011;2769;49.864;8.656;2023-09-19T00:31:51;2.67;;;1.70;;
5493;SDS011;2769;49.864;8.656;2023-09-19T00:34:39;6.50;;;2.20;;
5493;SDS011;2769;49.864;8.656;2023-09-19T00:37:31;2.70;;;1.70;;
5493;SDS011;2769;49.864;8.656;2023-09-19T00:40:19;4.17;;;1.80;;
5493;SDS011;2769;49.864;8.656;2023-09-19T00:43:08;2.47;;;1.57;;
5493;SDS011;2769;49.864;8.656;2023-09-19T00:45:56;4.47;;;2.30;;
5493;SDS011;2769;49.864;8.656;2023-09-19T00:48:47;2.03;;;1.83;;
5493;SDS011;2769;49.864;8.656;2023-09-19T00:51:36;2.40;;;1.57;;
5493;SDS011;2769;49.864;8.656;2023-09-19T00:54:26;3.43;;;1.43;;
5493;SDS011;2769;49.864;8.656;2023-09-19T00:57:14;3.37;;;1.70;;
5493;SDS011;2769;49.864;8.656;2023-09-19T01:00:06;2.30;;;1.70;;
5493;SDS011;2769;49.864;8.656;2023-09-19T01:03:00;5.53;;;1.83;;
5493;SDS011;2769;49.864;8.656;2023-09-19T01:05:49;1.73;;;1.63;;
5493;SDS011;2769;49.864;8.656;2023-09-19T01:08:38;4.87;;;1.80;;
5493;SDS011;2769;49.864;8.656;2023-09-19T01:11:30;4.53;;;1.90;;
5493;SDS011;2769;49.864;8.656;2023-09-19T01:14:25;3.00;;;1.90;;
5493;SDS011;2769;49.864;8.656;2023-09-19T01:17:19;3.67;;;2.10;;
5493;SDS011;2769;49.864;8.656;2023-09-19T01:20:25;2.03;;;1.53;;
5493;SDS011;2769;49.864;8.656;2023-09-19T01:23:17;4.23;;;2.00;;
5493;SDS011;2769;49.864;8.656;2023-09-19T01:26:11;3.87;;;1.93;;
5493;SDS011;2769;49.864;8.656;2023-09-19T01:29:12;3.30;;;1.50;;
5493;SDS011;2769;49.864;8.656;2023-09-19T01:32:12;4.43;;;1.70;;
5493;SDS011;2769;49.864;8.656;2023-09-19T01:35:02;3.53;;;2.30;;
5493;SDS011;2769;49.864;8.656;2023-09-19T01:37:51;2.80;;;1.70;;
5493;SDS011;2769;49.864;8.656;2023-09-19T01:40:41;6.73;;;1.90;;
5493;SDS011;2769;49.864;8.656;2023-09-19T01:43:32;4.53;;;1.90;;
5493;SDS011;2769;49.864;8.656;2023-09-19T01:46:24;2.93;;;1.67;;
5493;SDS011;2769;49.864;8.656;2023-09-19T01:49:18;3.23;;;1.80;;
5493;SDS011;2769;49.864;8.656;2023-09-19T01:52:12;8.40;;;2.40;;
5493;SDS011;2769;49.864;8.656;2023-09-19T01:55:05;2.60;;;2.30;;
5493;SDS011;2769;49.864;8.656;2023-09-19T01:57:58;3.77;;;2.40;;
5493;SDS011;2769;49.864;8.656;2023-09-19T02:00:51;2.63;;;2.00;;
5493;SDS011;2769;49.864;8.656;2023-09-19T02:03:39;2.80;;;2.00;;
5493;SDS011;2769;49.864;8.656;2023-09-19T02:06:33;4.07;;;1.90;;
5493;SDS011;2769;49.864;8.656;2023-09-19T02:09:21;5.80;;;2.50;;
5493;SDS011;2769;49.864;8.656;2023-09-19T02:12:10;6.00;;;2.77;;
5493;SDS011;2769;49.864;8.656;2023-09-19T02:15:00;2.13;;;2.03;;
5493;SDS011;2769;49.864;8.656;2023-09-19T02:17:49;2.30;;;2.10;;
5493;SDS011;2769;49.864;8.656;2023-09-19T02:20:37;6.27;;;2.30;;
5493;SDS011;2769;49.864;8.656;2023-09-19T02:23:27;8.77;;;2.10;;
5493;SDS011;2769;49.864;8.656;2023-09-19T02:26:16;6.43;;;2.10;;
5493;SDS011;2769;49.864;8.656;2023-09-19T02:29:07;5.37;;;2.43;;
5493;SDS011;2769;49.864;8.656;2023-09-19T02:31:59;5.03;;;1.87;;
5493;SDS011;2769;49.864;8.656;2023-09-19T02:34:52;2.07;;;1.87;;
5493;SDS011;2769;49.864;8.656;2023-09-19T02:37:41;4.20;;;2.10;;
5493;SDS011;2769;49.864;8.656;2023-09-19T02:40:31;6.57;;;2.33;;
5493;SDS011;2769;49.864;8.656;2023-09-19T02:43:23;3.10;;;2.13;;
5493;SDS011;2769;49.864;8.656;2023-09-19T02:46:11;6.00;;;2.20;;
5493;SDS011;2769;49.864;8.656;2023-09-19T02:49:00;3.67;;;2.43;;
5493;SDS011;2769;49.864;8.656;2023-09-19T02:51:49;3.30;;;2.20;;
5493;SDS011;2769;49.864;8.656;2023-09-19T02:54:38;4.67;;;2.33;;
5493;SDS011;2769;49.864;8.656;2023-09-19T02:57:28;4.10;;;2.37;;
5493;SDS011;2769;49.864;8.656;2023-09-19T03:00:18;2.60;;;2.40;;
5493;SDS011;2769;49.864;8.656;2023-09-19T03:03:09;4.13;;;2.43;;
5493;SDS011;2769;49.864;8.656;2023-09-19T03:05:58;4.20;;;2.87;;
5493;SDS011;2769;49.864;8.656;2023-09-19T03:08:46;3.90;;;2.40;;
5493;SDS011;2769;49.864;8.656;2023-09-19T03:11:36;6.73;;;2.70;;
5493;SDS011;2769;49.864;8.656;2023-09-19T03:14:26;2.93;;;2.43;;
5493;SDS011;2769;49.864;8.656;2023-09-19T03:17:18;7.10;;;2.93;;
5493;SDS011;2769;49.864;8.656;2023-09-19T03:20:08;7.40;;;2.67;;
5493;SDS011;2769;49.864;8.656;2023-09-19T03:22:59;3.17;;;2.30;;
5493;SDS011;2769;49.864;8.656;2023-09-19T03:25:49;7.00;;;2.80;;
5493;SDS011;2769;49.864;8.656;2023-09-19T03:28:39;5.17;;;2.50;;
5493;SDS011;2769;49.864;8.656;2023-09-19T03:31:29;4.50;;;2.53;;
5493;SDS011;2769;49.864;8.656;2023-09-19T03:34:18;4.30;;;2.80;;
5493;SDS011;2769;49.864;8.656;2023-09-19T03:37:06;6.43;;;2.70;;
5493;SDS011;2769;49.864;8.656;2023-09-19T03:39:56;3.77;;;3.00;;
5493;SDS011;2769;49.864;8.656;2023-09-19T03:42:44;3.73;;;2.63;;
5493;SDS011;2769;49.864;8.656;2023-09-19T03:45:33;10.53;;;3.10;;
5493;SDS011;2769;49.864;8.656;2023-09-19T03:48:23;8.23;;;2.90;;
5493;SDS011;2769;49.864;8.656;2023-09-19T03:51:11;7.90;;;2.90;;
5493;SDS011;2769;49.864;8.656;2023-09-19T03:53:59;3.93;;;2.73;;
5493;SDS011;2769;49.864;8.656;2023-09-19T03:56:48;2.80;;;2.60;;
5493;SDS011;2769;49.864;8.656;2023-09-19T03:59:37;3.10;;;2.70;;
5493;SDS011;2769;49.864;8.656;2023-09-19T04:02:25;3.20;;;2.90;;
5493;SDS011;2769;49.864;8.656;2023-09-19T04:05:21;7.17;;;3.20;;
5493;SDS011;2769;49.864;8.656;2023-09-19T04:08:09;9.63;;;2.80;;
5493;SDS011;2769;49.864;8.656;2023-09-19T04:10:57;5.47;;;2.73;;
5493;SDS011;2769;49.864;8.656;2023-09-19T04:13:45;3.80;;;2.77;;
5493;SDS011;2769;49.864;8.656;2023-09-19T04:16:33;2.97;;;2.77;;
5493;SDS011;2769;49.864;8.656;2023-09-19T04:19:22;6.33;;;2.80;;
5493;SDS011;2769;49.864;8.656;2023-09-19T04:22:12;4.83;;;3.33;;
5493;SDS011;2769;49.864;8.656;2023-09-19T04:25:00;5.37;;;3.13;;
5493;SDS011;2769;49.864;8.656;2023-09-19T04:27:49;8.43;;;2.80;;
5493;SDS011;2769;49.864;8.656;2023-09-19T04:30:37;6.30;;;3.03;;
5493;SDS011;2769;49.864;8.656;2023-09-19T04:33:27;3.07;;;2.87;;
5493;SDS011;2769;49.864;8.656;2023-09-19T04:36:15;10.57;;;3.07;;
5493;SDS011;2769;49.864;8.656;2023-09-19T04:39:23;8.27;;;3.67;;
5493;SDS011;2769;49.864;8.656;2023-09-19T04:42:12;4.40;;;3.67;;
5493;SDS011;2769;49.864;8.656;2023-09-19T04:45:02;7.43;;;3.60;;
5493;SDS011;2769;49.864;8.656;2023-09-19T04:47:51;5.70;;;3.83;;
5493;SDS011;2769;49.864;8.656;2023-09-19T04:50:40;5.80;;;3.93;;
5493;SDS011;2769;49.864;8.656;2023-09-19T04:53:28;7.70;;;4.00;;
5493;SDS011;2769;49.864;8.656;2023-09-19T04:56:18;6.00;;;4.20;;
5493;SDS011;2769;49.864;8.656;2023-09-19T04:59:08;4.67;;;4.10;;
5493;SDS011;2769;49.864;8.656;2023-09-19T05:01:58;5.07;;;3.70;;
5493;SDS011;2769;49.864;8.656;2023-09-19T05:04:49;6.63;;;4.10;;
5493;SDS011;2769;49.864;8.656;2023-09-19T05:07:38;9.60;;;4.57;;
5493;SDS011;2769;49.864;8.656;2023-09-19T05:10:27;7.43;;;4.03;;
5493;SDS011;2769;49.864;8.656;2023-09-19T05:13:16;9.97;;;5.03;;
5493;SDS011;2769;49.864;8.656;2023-09-19T05:16:04;4.90;;;4.10;;
5493;SDS011;2769;49.864;8.656;2023-09-19T05:18:53;5.30;;;3.80;;
5493;SDS011;2769;49.864;8.656;2023-09-19T05:21:42;11.67;;;4.47;;
5493;SDS011;2769;49.864;8.656;2023-09-19T05:24:30;10.87;;;5.10;;
5493;SDS011;2769;49.864;8.656;2023-09-19T05:27:18;7.80;;;4.50;;
5493;SDS011;2769;49.864;8.656;2023-09-19T05:30:09;9.63;;;4.53;;
5493;SDS011;2769;49.864;8.656;2023-09-19T05:33:01;7.90;;;5.47;;
5493;SDS011;2769;49.864;8.656;2023-09-19T05:35:54;8.80;;;4.83;;
5493;SDS011;2769;49.864;8.656;2023-09-19T05:38:43;6.23;;;4.53;;
5493;SDS011;2769;49.864;8.656;2023-09-19T05:41:32;8.10;;;4.70;;
5493;SDS011;2769;49.864;8.656;2023-09-19T05:44:20;4.63;;;4.23;;
5493;SDS011;2769;49.864;8.656;2023-09-19T05:47:10;13.90;;;4.70;;
5493;SDS011;2769;49.864;8.656;2023-09-19T05:49:59;7.13;;;4.60;;
5493;SDS011;2769;49.864;8.656;2023-09-19T05:52:51;29.27;;;4.67;;
5493;SDS011;2769;49.864;8.656;2023-09-19T05:55:40;7.70;;;5.20;;
5493;SDS011;2769;49.864;8.656;2023-09-19T05:58:28;4.63;;;4.23;;
5493;SDS011;2769;49.864;8.656;2023-09-19T06:01:16;6.97;;;4.63;;
5493;SDS011;2769;49.864;8.656;2023-09-19T06:04:06;11.30;;;4.23;;
5493;SDS011;2769;49.864;8.656;2023-09-19T06:06:54;4.93;;;4.43;;
5493;SDS011;2769;49.864;8.656;2023-09-19T06:09:43;4.63;;;4.23;;
5493;SDS011;2769;49.864;8.656;2023-09-19T06:12:31;12.07;;;5.63;;
5493;SDS011;2769;49.864;8.656;2023-09-19T06:15:23;7.63;;;3.90;;
5493;SDS011;2769;49.864;8.656;2023-09-19T06:18:12;9.17;;;4.60;;
5493;SDS011;2769;49.864;8.656;2023-09-19T06:21:07;6.07;;;4.10;;
5493;SDS011;2769;49.864;8.656;2023-09-19T06:23:56;4.23;;;3.83;;
5493;SDS011;2769;49.864;8.656;2023-09-19T06:26:44;4.00;;;3.60;;
5493;SDS011;2769;49.864;8.656;2023-09-19T06:29:34;8.90;;;4.00;;
5493;SDS011;2769;49.864;8.656;2023-09-19T06:32:26;6.97;;;3.80;;
5493;SDS011;2769;49.864;8.656;2023-09-19T06:35:16;7.67;;;4.00;;
5493;SDS011;2769;49.864;8.656;2023-09-19T06:38:05;4.93;;;4.23;;
5493;SDS011;2769;49.864;8.656;2023-09-19T06:40:54;5.63;;;3.70;;
5493;SDS011;2769;49.864;8.656;2023-09-19T06:43:43;5.90;;;3.40;;
5493;SDS011;2769;49.864;8.656;2023-09-19T06:46:31;7.13;;;3.33;;
5493;SDS011;2769;49.864;8.656;2023-09-19T06:49:21;6.83;;;3.80;;
5493;SDS011;2769;49.864;8.656;2023-09-19T06:52:10;6.03;;;3.50;;
5493;SDS011;2769;49.864;8.656;2023-09-19T06:55:00;6.23;;;3.90;;
5493;SDS011;2769;49.864;8.656;2023-09-19T06:57:50;8.83;;;3.87;;
5493;SDS011;2769;49.864;8.656;2023-09-19T07:00:41;7.53;;;4.40;;
5493;SDS011;2769;49.864;8.656;2023-09-19T07:03:31;3.47;;;3.13;;
5493;SDS011;2769;49.864;8.656;2023-09-19T07:06:20;7.20;;;3.50;;
5493;SDS011;2769;49.864;8.656;2023-09-19T07:09:09;6.33;;;3.20;;
5493;SDS011;2769;49.864;8.656;2023-09-19T07:11:58;9.07;;;3.50;;
5493;SDS011;2769;49.864;8.656;2023-09-19T07:14:51;5.77;;;2.93;;
5493;SDS011;2769;49.864;8.656;2023-09-19T07:17:39;6.33;;;3.13;;
5493;SDS011;2769;49.864;8.656;2023-09-19T07:20:28;5.97;;;3.13;;
5493;SDS011;2769;49.864;8.656;2023-09-19T07:23:19;5.10;;;3.07;;
5493;SDS011;2769;49.864;8.656;2023-09-19T07:26:09;6.50;;;3.60;;
5493;SDS011;2769;49.864;8.656;2023-09-19T07:28:59;5.80;;;3.30;;
5493;SDS011;2769;49.864;8.656;2023-09-19T07:31:49;5.27;;;3.00;;
5493;SDS011;2769;49.864;8.656;2023-09-19T07:34:37;5.33;;;2.83;;
5493;SDS011;2769;49.864;8.656;2023-09-19T07:37:28;5.23;;;2.60;;
5493;SDS011;2769;49.864;8.656;2023-09-19T07:40:20;10.03;;;2.90;;
5493;SDS011;2769;49.864;8.656;2023-09-19T07:43:08;8.60;;;2.60;;
5493;SDS011;2769;49.864;8.656;2023-09-19T07:45:58;7.10;;;2.37;;
5493;SDS011;2769;49.864;8.656;2023-09-19T07:48:51;6.30;;;2.17;;
5493;SDS011;2769;49.864;8.656;2023-09-19T07:51:40;2.93;;;2.40;;
5493;SDS011;2769;49.864;8.656;2023-09-19T07:54:33;2.87;;;2.40;;
5493;SDS011;2769;49.864;8.656;2023-09-19T07:57:22;10.93;;;2.33;;
5493;SDS011;2769;49.864;8.656;2023-09-19T08:00:10;4.20;;;2.40;;
5493;SDS011;2769;49.864;8.656;2023-09-19T08:03:03;6.03;;;2.20;;
5493;SDS011;2769;49.864;8.656;2023-09-19T08:06:02;5.70;;;2.30;;
5493;SDS011;2769;49.864;8.656;2023-09-19T08:08:51;6.07;;;2.90;;
5493;SDS011;2769;49.864;8.656;2023-09-19T08:11:41;7.13;;;3.23;;
5493;SDS011;2769;49.864;8.656;2023-09-19T08:14:30;4.97;;;2.43;;
5493;SDS011;2769;49.864;8.656;2023-09-19T08:17:19;5.63;;;2.70;;
5493;SDS011;2769;49.864;8.656;2023-09-19T08:20:11;8.67;;;2.90;;
5493;SDS011;2769;49.864;8.656;2023-09-19T08:23:03;3.97;;;2.07;;
5493;SDS011;2769;49.864;8.656;2023-09-19T08:25:55;9.17;;;2.33;;
5493;SDS011;2769;49.864;8.656;2023-09-19T08:28:44;4.83;;;2.47;;
5493;SDS011;2769;49.864;8.656;2023-09-19T08:31:32;4.90;;;2.50;;
5493;SDS011;2769;49.864;8.656;2023-09-19T08:34:22;5.90;;;2.53;;
5493;SDS011;2769;49.864;8.656;2023-09-19T08:37:12;5.77;;;3.00;;
5493;SDS011;2769;49.864;8.656;2023-09-19T08:40:00;4.67;;;2.60;;
5493;SDS011;2769;49.864;8.656;2023-09-19T08:42:48;7.77;;;2.83;;
5493;SDS011;2769;49.864;8.656;2023-09-19T08:45:37;2.57;;;1.90;;
5493;SDS011;2769;49.864;8.656;2023-09-19T08:48:27;4.23;;;2.30;;
5493;SDS011;2769;49.864;8.656;2023-09-19T08:51:18;5.70;;;2.07;;
5493;SDS011;2769;49.864;8.656;2023-09-19T08:54:08;3.23;;;2.10;;
5493;SDS011;2769;49.864;8.656;2023-09-19T08:56:57;6.47;;;2.43;;
5493;SDS011;2769;49.864;8.656;2023-09-19T08:59:49;5.33;;;2.10;;
5493;SDS011;2769;49.864;8.656;2023-09-19T09:02:37;2.23;;;2.03;;
5493;SDS011;2769;49.864;8.656;2023-09-19T09:05:27;5.17;;;2.30;;
5493;SDS011;2769;49.864;8.656;2023-09-19T09:08:17;16.03;;;2.83;;
5493;SDS011;2769;49.864;8.656;2023-09-19T09:11:08;4.27;;;2.07;;
5493;SDS011;2769;49.864;8.656;2023-09-19T09:13:59;4.60;;;1.97;;
5493;SDS011;2769;49.864;8.656;2023-09-19T09:16:48;2.80;;;1.97;;
5493;SDS011;2769;49.864;8.656;2023-09-19T09:19:37;4.97;;;2.50;;
5493;SDS011;2769;49.864;8.656;2023-09-19T09:22:25;8.00;;;2.17;;
5493;SDS011;2769;49.864;8.656;2023-09-19T09:25:13;4.07;;;1.60;;
5493;SDS011;2769;49.864;8.656;2023-09-19T09:28:06;3.00;;;2.00;;
5493;SDS011;2769;49.864;8.656;2023-09-19T09:30:54;3.57;;;1.90;;
5493;SDS011;2769;49.864;8.656;2023-09-19T09:33:43;5.70;;;2.00;;
5493;SDS011;2769;49.864;8.656;2023-09-19T09:36:41;5.97;;;2.00;;
5493;SDS011;2769;49.864;8.656;2023-09-19T09:39:29;3.47;;;1.83;;
5493;SDS011;2769;49.864;8.656;2023-09-19T09:42:34;4.60;;;2.23;;
5493;SDS011;2769;49.864;8.656;2023-09-19T09:45:27;4.17;;;1.80;;
5493;SDS011;2769;49.864;8.656;2023-09-19T09:48:24;5.13;;;2.10;;
5493;SDS011;2769;49.864;8.656;2023-09-19T09:51:29;6.50;;;1.83;;
5493;SDS011;2769;49.864;8.656;2023-09-19T09:54:18;2.93;;;1.67;;
5493;SDS011;2769;49.864;8.656;2023-09-19T09:57:08;9.50;;;2.20;;
5493;SDS011;2769;49.864;8.656;2023-09-19T10:00:04;5.50;;;1.97;;
5493;SDS011;2769;49.864;8.656;2023-09-19T10:03:09;3.00;;;1.60;;
5493;SDS011;2769;49.864;8.656;2023-09-19T10:06:09;5.57;;;1.87;;
5493;SDS011;2769;49.864;8.656;2023-09-19T10:09:12;4.83;;;1.73;;
5493;SDS011;2769;49.864;8.656;2023-09-19T10:12:03;7.33;;;2.00;;
5493;SDS011;2769;49.864;8.656;2023-09-19T10:14:55;5.70;;;2.20;;
5493;SDS011;2769;49.864;8.656;2023-09-19T10:17:46;4.40;;;1.90;;
5493;SDS011;2769;49.864;8.656;2023-09-19T10:20:36;5.20;;;2.70;;
5493;SDS011;2769;49.864;8.656;2023-09-19T10:23:25;8.33;;;2.50;;
5493;SDS011;2769;49.864;8.656;2023-09-19T10:26:16;8.50;;;2.10;;
5493;SDS011;2769;49.864;8.656;2023-09-19T10:29:06;7.80;;;1.93;;
5493;SDS011;2769;49.864;8.656;2023-09-19T10:31:56;7.87;;;2.33;;
5493;SDS011;2769;49.864;8.656;2023-09-19T10:34:47;2.80;;;1.60;;
5493;SDS011;2769;49.864;8.656;2023-09-19T10:37:37;5.77;;;1.80;;
5493;SDS011;2769;49.864;8.656;2023-09-19T10:40:26;7.43;;;2.60;;
5493;SDS011;2769;49.864;8.656;2023-09-19T10:43:18;5.07;;;1.93;;
5493;SDS011;2769;49.864;8.656;2023-09-19T10:46:08;4.37;;;1.70;;
5493;SDS011;2769;49.864;8.656;2023-09-19T10:48:58;5.53;;;2.20;;
5493;SDS011;2769;49.864;8.656;2023-09-19T10:51:47;5.80;;;1.87;;
5493;SDS011;2769;49.864;8.656;2023-09-19T10:54:38;3.33;;;1.83;;
5493;SDS011;2769;49.864;8.656;2023-09-19T10:57:33;5.40;;;2.17;;
5493;SDS011;2769;49.864;8.656;2023-09-19T11:00:22;3.13;;;1.67;;
5493;SDS011;2769;49.864;8.656;2023-09-19T11:03:17;5.30;;;2.00;;
5493;SDS011;2769;49.864;8.656;2023-09-19T11:06:11;3.90;;;1.90;;
5493;SDS011;2769;49.864;8.656;2023-09-19T11:09:03;4.67;;;2.10;;
5493;SDS011;2769;49.864;8.656;2023-09-19T11:12:10;7.73;;;1.97;;
5493;SDS011;2769;49.864;8.656;2023-09-19T11:14:58;4.00;;;1.90;;
5493;SDS011;2769;49.864;8.656;2023-09-19T11:17:47;4.93;;;2.20;;
5493;SDS011;2769;49.864;8.656;2023-09-19T11:20:36;5.20;;;2.17;;
5493;SDS011;2769;49.864;8.656;2023-09-19T11:23:30;4.00;;;2.40;;
5493;SDS011;2769;49.864;8.656;2023-09-19T11:26:32;5.30;;;2.20;;
5493;SDS011;2769;49.864;8.656;2023-09-19T11:29:31;7.20;;;2.00;;
5493;SDS011;2769;49.864;8.656;2023-09-19T11:32:27;5.30;;;2.00;;
5493;SDS011;2769;49.864;8.656;2023-09-19T11:36:00;6.30;;;2.03;;
5493;SDS011;2769;49.864;8.656;2023-09-19T11:38:59;3.90;;;2.00;;
5493;SDS011;2769;49.864;8.656;2023-09-19T11:41:55;5.47;;;1.60;;
5493;SDS011;2769;49.864;8.656;2023-09-19T11:44:45;5.30;;;1.93;;
5493;SDS011;2769;49.864;8.656;2023-09-19T11:47:38;3.20;;;1.90;;
5493;SDS011;2769;49.864;8.656;2023-09-19T11:50:27;7.47;;;2.10;;
5493;SDS011;2769;49.864;8.656;2023-09-19T11:53:15;2.43;;;2.00;;
5493;SDS011;2769;49.864;8.656;2023-09-19T11:56:05;2.83;;;1.87;;
5493;SDS011;2769;49.864;8.656;2023-09-19T11:58:57;4.63;;;2.00;;
5493;SDS011;2769;49.864;8.656;2023-09-19T12:01:51;2.57;;;1.70;;
5493;SDS011;2769;49.864;8.656;2023-09-19T12:04:44;6.13;;;1.90;;
5493;SDS011;2769;49.864;8.656;2023-09-19T12:07:42;5.63;;;1.87;;
5493;SDS011;2769;49.864;8.656;2023-09-19T12:10:32;7.77;;;1.50;;
5493;SDS011;2769;49.864;8.656;2023-09-19T12:13:21;5.07;;;2.27;;
5493;SDS011;2769;49.864;8.656;2023-09-19T12:16:13;3.13;;;1.50;;
5493;SDS011;2769;49.864;8.656;2023-09-19T12:19:20;4.30;;;1.80;;
5493;SDS011;2769;49.864;8.656;2023-09-19T12:22:10;3.13;;;1.47;;
5493;SDS011;2769;49.864;8.656;2023-09-19T12:25:05;3.70;;;1.90;;
5493;SDS011;2769;49.864;8.656;2023-09-19T12:27:53;5.33;;;1.83;;
5493;SDS011;2769;49.864;8.656;2023-09-19T12:30:42;3.53;;;2.03;;
5493;SDS011;2769;49.864;8.656;2023-09-19T12:33:32;4.40;;;2.33;;
5493;SDS011;2769;49.864;8.656;2023-09-19T12:36:22;2.73;;;1.90;;
5493;SDS011;2769;49.864;8.656;2023-09-19T12:39:23;5.23;;;1.77;;
5493;SDS011;2769;49.864;8.656;2023-09-19T12:42:12;8.87;;;2.27;;
5493;SDS011;2769;49.864;8.656;2023-09-19T12:45:01;4.20;;;1.70;;
5493;SDS011;2769;49.864;8.656;2023-09-19T12:51:09;3.43;;;2.13;;
5493;SDS011;2769;49.864;8.656;2023-09-19T12:54:00;2.67;;;1.83;;
5493;SDS011;2769;49.864;8.656;2023-09-19T12:56:49;3.33;;;1.40;;
5493;SDS011;2769;49.864;8.656;2023-09-19T12:59:38;2.50;;;1.50;;
5493;SDS011;2769;49.864;8.656;2023-09-19T13:02:27;3.60;;;1.50;;
5493;SDS011;2769;49.864;8.656;2023-09-19T13:05:15;1.93;;;1.70;;
5493;SDS011;2769;49.864;8.656;2023-09-19T13:08:17;6.00;;;1.80;;
5493;SDS011;2769;49.864;8.656;2023-09-19T13:11:08;2.87;;;1.73;;
5493;SDS011;2769;49.864;8.656;2023-09-19T13:14:13;2.13;;;1.50;;
5493;SDS011;2769;49.864;8.656;2023-09-19T13:17:03;1.70;;;1.60;;
5493;SDS011;2769;49.864;8.656;2023-09-19T13:19:55;5.90;;;1.70;;
5493;SDS011;2769;49.864;8.656;2023-09-19T13:22:45;5.13;;;1.77;;
5493;SDS011;2769;49.864;8.656;2023-09-19T13:25:37;2.40;;;1.90;;
5493;SDS011;2769;49.864;8.656;2023-09-19T13:28:28;5.87;;;1.53;;
5493;SDS011;2769;49.864;8.656;2023-09-19T13:31:17;2.50;;;1.83;;
5493;SDS011;2769;49.864;8.656;2023-09-19T13:34:05;2.03;;;1.30;;
5493;SDS011;2769;49.864;8.656;2023-09-19T13:36:54;6.80;;;1.80;;
5493;SDS011;2769;49.864;8.656;2023-09-19T13:39:42;3.90;;;1.40;;
5493;SDS011;2769;49.864;8.656;2023-09-19T13:42:34;1.70;;;1.60;;
5493;SDS011;2769;49.864;8.656;2023-09-19T13:45:24;4.20;;;1.50;;
5493;SDS011;2769;49.864;8.656;2023-09-19T13:48:17;2.17;;;1.20;;
5493;SDS011;2769;49.864;8.656;2023-09-19T13:51:09;3.77;;;1.63;;
5493;SDS011;2769;49.864;8.656;2023-09-19T13:53:57;3.17;;;1.80;;
5493;SDS011;2769;49.864;8.656;2023-09-19T13:56:46;3.00;;;1.60;;
5493;SDS011;2769;49.864;8.656;2023-09-19T13:59:34;2.80;;;1.80;;
5493;SDS011;2769;49.864;8.656;2023-09-19T14:02:24;6.27;;;1.70;;
5493;SDS011;2769;49.864;8.656;2023-09-19T14:05:13;2.70;;;1.70;;
5493;SDS011;2769;49.864;8.656;2023-09-19T14:08:03;5.73;;;1.70;;
5493;SDS011;2769;49.864;8.656;2023-09-19T14:10:52;2.50;;;1.60;;
5493;SDS011;2769;49.864;8.656;2023-09-19T14:13:41;2.10;;;1.33;;
5493;SDS011;2769;49.864;8.656;2023-09-19T14:16:33;2.70;;;1.50;;
5493;SDS011;2769;49.864;8.656;2023-09-19T14:19:23;4.40;;;1.70;;
5493;SDS011;2769;49.864;8.656;2023-09-19T14:22:11;2.53;;;1.57;;
5493;SDS011;2769;49.864;8.656;2023-09-19T14:25:01;2.63;;;1.20;;
5493;SDS011;2769;49.864;8.656;2023-09-19T14:27:49;3.90;;;1.70;;
5493;SDS011;2769;49.864;8.656;2023-09-19T14:30:38;17.53;;;1.30;;
5493;SDS011;2769;49.864;8.656;2023-09-19T14:33:26;5.40;;;1.47;;
5493;SDS011;2769;49.864;8.656;2023-09-19T14:36:16;2.97;;;1.83;;
5493;SDS011;2769;49.864;8.656;2023-09-19T14:39:05;1.67;;;1.47;;
5493;SDS011;2769;49.864;8.656;2023-09-19T14:41:55;2.77;;;1.40;;
5493;SDS011;2769;49.864;8.656;2023-09-19T14:44:43;1.40;;;1.20;;
5493;SDS011;2769;49.864;8.656;2023-09-19T14:47:31;1.30;;;1.20;;
5493;SDS011;2769;49.864;8.656;2023-09-19T14:50:20;3.03;;;1.70;;
5493;SDS011;2769;49.864;8.656;2023-09-19T14:53:10;5.27;;;1.70;;
5493;SDS011;2769;49.864;8.656;2023-09-19T14:56:00;1.40;;;1.30;;
5493;SDS011;2769;49.864;8.656;2023-09-19T14:58:50;3.30;;;1.67;;
5493;SDS011;2769;49.864;8.656;2023-09-19T15:01:38;2.93;;;1.40;;
5493;SDS011;2769;49.864;8.656;2023-09-19T15:04:28;3.13;;;1.63;;
5493;SDS011;2769;49.864;8.656;2023-09-19T15:07:16;3.93;;;1.30;;
5493;SDS011;2769;49.864;8.656;2023-09-19T15:10:07;3.80;;;1.47;;
5493;SDS011;2769;49.864;8.656;2023-09-19T15:12:56;3.70;;;1.50;;
5493;SDS011;2769;49.864;8.656;2023-09-19T15:15:45;1.90;;;1.33;;
5493;SDS011;2769;49.864;8.656;2023-09-19T15:18:35;2.03;;;1.40;;
5493;SDS011;2769;49.864;8.656;2023-09-19T15:21:24;2.50;;;1.97;;
5493;SDS011;2769;49.864;8.656;2023-09-19T15:24:14;2.93;;;1.40;;
5493;SDS011;2769;49.864;8.656;2023-09-19T15:27:05;2.20;;;1.30;;
5493;SDS011;2769;49.864;8.656;2023-09-19T15:29:53;2.20;;;1.60;;
5493;SDS011;2769;49.864;8.656;2023-09-19T15:32:41;3.70;;;1.90;;
5493;SDS011;2769;49.864;8.656;2023-09-19T15:35:30;2.40;;;1.23;;
5493;SDS011;2769;49.864;8.656;2023-09-19T15:38:18;1.70;;;1.60;;
5493;SDS011;2769;49.864;8.656;2023-09-19T15:41:07;3.83;;;1.40;;
5493;SDS011;2769;49.864;8.656;2023-09-19T15:44:01;3.17;;;1.30;;
5493;SDS011;2769;49.864;8.656;2023-09-19T15:46:50;3.80;;;1.27;;
5493;SDS011;2769;49.864;8.656;2023-09-19T15:49:39;3.53;;;1.70;;
5493;SDS011;2769;49.864;8.656;2023-09-19T15:52:27;2.57;;;1.43;;
5493;SDS011;2769;49.864;8.656;2023-09-19T15:55:16;4.20;;;1.33;;
5493;SDS011;2769;49.864;8.656;2023-09-19T15:58:04;2.90;;;1.10;;
5493;SDS011;2769;49.864;8.656;2023-09-19T16:00:54;3.33;;;1.23;;
5493;SDS011;2769;49.864;8.656;2023-09-19T16:03:43;5.97;;;1.40;;
5493;SDS011;2769;49.864;8.656;2023-09-19T16:06:33;2.07;;;1.13;;
5493;SDS011;2769;49.864;8.656;2023-09-19T16:09:21;2.47;;;1.13;;
5493;SDS011;2769;49.864;8.656;2023-09-19T16:12:09;2.13;;;1.50;;
5493;SDS011;2769;49.864;8.656;2023-09-19T16:15:01;2.20;;;1.10;;
5493;SDS011;2769;49.864;8.656;2023-09-19T16:17:50;2.00;;;1.57;;
5493;SDS011;2769;49.864;8.656;2023-09-19T16:20:39;1.13;;;1.13;;
5493;SDS011;2769;49.864;8.656;2023-09-19T16:23:27;7.13;;;1.30;;
5493;SDS011;2769;49.864;8.656;2023-09-19T16:26:18;2.53;;;1.13;;
5493;SDS011;2769;49.864;8.656;2023-09-19T16:29:07;1.47;;;1.37;;
5493;SDS011;2769;49.864;8.656;2023-09-19T16:31:57;2.10;;;1.10;;
5493;SDS011;2769;49.864;8.656;2023-09-19T16:34:46;5.40;;;1.40;;
5493;SDS011;2769;49.864;8.656;2023-09-19T16:37:36;1.90;;;1.07;;
5493;SDS011;2769;49.864;8.656;2023-09-19T16:40:25;7.50;;;1.70;;
5493;SDS011;2769;49.864;8.656;2023-09-19T16:43:14;5.33;;;1.30;;
5493;SDS011;2769;49.864;8.656;2023-09-19T16:46:02;2.40;;;1.30;;
5493;SDS011;2769;49.864;8.656;2023-09-19T16:48:53;2.33;;;1.20;;
5493;SDS011;2769;49.864;8.656;2023-09-19T16:51:51;1.30;;;1.17;;
5493;SDS011;2769;49.864;8.656;2023-09-19T16:54:39;3.87;;;1.50;;
5493;SDS011;2769;49.864;8.656;2023-09-19T16:57:29;1.77;;;1.37;;
5493;SDS011;2769;49.864;8.656;2023-09-19T17:00:17;1.83;;;1.50;;
5493;SDS011;2769;49.864;8.656;2023-09-19T17:03:06;2.53;;;1.30;;
5493;SDS011;2769;49.864;8.656;2023-09-19T17:05:58;3.57;;;1.40;;
5493;SDS011;2769;49.864;8.656;2023-09-19T17:08:49;6.57;;;1.87;;
5493;SDS011;2769;49.864;8.656;2023-09-19T17:11:37;1.60;;;1.50;;
5493;SDS011;2769;49.864;8.656;2023-09-19T17:14:26;1.33;;;1.23;;
5493;SDS011;2769;49.864;8.656;2023-09-19T17:17:14;2.77;;;1.30;;
5493;SDS011;2769;49.864;8.656;2023-09-19T17:20:03;7.00;;;1.57;;
5493;SDS011;2769;49.864;8.656;2023-09-19T17:22:52;1.57;;;1.00;;
5493;SDS011;2769;49.864;8.656;2023-09-19T17:25:42;2.37;;;1.00;;
5493;SDS011;2769;49.864;8.656;2023-09-19T17:28:30;2.30;;;1.33;;
5493;SDS011;2769;49.864;8.656;2023-09-19T17:31:19;3.23;;;1.50;;
5493;SDS011;2769;49.864;8.656;2023-09-19T17:34:09;1.80;;;1.23;;
5493;SDS011;2769;49.864;8.656;2023-09-19T17:36:58;2.60;;;1.23;;
5493;SDS011;2769;49.864;8.656;2023-09-19T17:39:46;1.50;;;1.40;;
5493;SDS011;2769;49.864;8.656;2023-09-19T17:42:36;2.07;;;1.47;;